Time;durP1;ratioP1;P1;durP2;ratioP2;P2;SDS_P1;SDS_P2;PMS_P1;PMS_P2;Temp;Humidity;BMP_temperature;BMP_pressure;BME280_temperature;BME280_humidity;BME280_pressure;Samples;Min_cycle;Max_cycle;Signal;HPM_P1;HPM_P2
2023/05/13 00:01:45;;;;;;;23.02;21.10;;;;;;;;;;4937043;28;20404;-74
2023/05/13 00:04:13;;;;;;;24.10;21.80;;;;;;;;;;4961562;28;20867;-74
2023/05/13 00:06:39;;;;;;;23.90;21.75;;;;;;;;;;4943014;28;20488;-74
2023/05/13 00:09:05;;;;;;;24.73;22.13;;;;;;;;;;4962531;28;20400;-74
2023/05/13 00:11:31;;;;;;;24.80;22.20;;;;;;;;;;4948220;28;20406;-73
2023/05/13 00:13:57;;;;;;;24.17;21.80;;;;;;;;;;4954693;28;20975;-74
2023/05/13 00:16:26;;;;;;;21.73;19.73;;;;;;;;;;4954097;28;20397;-74
2023/05/13 00:18:52;;;;;;;20.40;18.33;;;;;;;;;;4958210;28;20194;-74
2023/05/13 00:21:18;;;;;;;18.70;15.43;;;;;;;;;;4948047;28;20489;-73
2023/05/13 00:23:44;;;;;;;17.40;16.00;;;;;;;;;;4947730;28;20445;-74
2023/05/13 00:26:10;;;;;;;18.67;16.63;;;;;;;;;;4944044;28;20429;-74
2023/05/13 00:28:36;;;;;;;19.27;17.37;;;;;;;;;;4952722;28;20445;-74
2023/05/13 00:31:03;;;;;;;19.47;17.50;;;;;;;;;;4959002;28;20430;-74
2023/05/13 00:33:29;;;;;;;20.70;18.90;;;;;;;;;;4958672;28;20819;-75
2023/05/13 00:35:55;;;;;;;18.83;17.00;;;;;;;;;;4948778;28;20442;-74
2023/05/13 00:38:21;;;;;;;24.17;21.90;;;;;;;;;;4953076;28;20523;-74
2023/05/13 00:40:48;;;;;;;23.10;20.90;;;;;;;;;;4948837;28;20412;-74
2023/05/13 00:43:14;;;;;;;20.50;18.60;;;;;;;;;;4943207;29;20194;-74
2023/05/13 00:45:43;;;;;;;18.30;16.50;;;;;;;;;;4956904;29;20433;-73
2023/05/13 00:48:09;;;;;;;19.10;17.30;;;;;;;;;;4959596;28;20450;-74
2023/05/13 00:50:35;;;;;;;17.20;15.77;;;;;;;;;;4949649;29;20984;-74
2023/05/13 00:53:03;;;;;;;19.00;17.20;;;;;;;;;;4945799;29;20438;-74
2023/05/13 00:55:29;;;;;;;23.75;21.45;;;;;;;;;;4928624;29;20423;-74
2023/05/13 00:57:55;;;;;;;22.45;20.35;;;;;;;;;;4943593;29;20502;-75
2023/05/13 01:00:21;;;;;;;24.23;21.95;;;;;;;;;;4946911;29;20394;-75
2023/05/13 01:02:53;;;;;;;23.33;21.43;;;;;;;;;;4944146;29;20458;-74
2023/05/13 01:05:26;;;;;;;23.17;21.17;;;;;;;;;;4947409;29;20406;-75
2023/05/13 01:07:58;;;;;;;22.40;20.40;;;;;;;;;;4942767;29;20406;-74
2023/05/13 01:10:27;;;;;;;21.67;19.83;;;;;;;;;;4947863;29;20465;-75
2023/05/13 01:12:56;;;;;;;22.85;20.63;;;;;;;;;;4944058;29;20434;-75
2023/05/13 01:15:24;;;;;;;20.60;18.80;;;;;;;;;;4946896;29;20916;-74
2023/05/13 01:17:55;;;;;;;21.27;19.38;;;;;;;;;;4943401;29;20944;-75
2023/05/13 01:20:22;;;;;;;21.00;19.15;;;;;;;;;;4944883;29;20402;-74
2023/05/13 01:22:48;;;;;;;16.17;14.77;;;;;;;;;;4941857;29;20273;-75
2023/05/13 01:25:14;;;;;;;18.93;15.00;;;;;;;;;;4948314;29;20430;-74
2023/05/13 01:27:41;;;;;;;14.60;13.37;;;;;;;;;;4944688;29;20438;-75
2023/05/13 01:30:08;;;;;;;17.00;15.40;;;;;;;;;;4947903;29;20446;-75
2023/05/13 01:32:35;;;;;;;19.03;15.90;;;;;;;;;;4944891;29;20485;-75
2023/05/13 01:35:01;;;;;;;16.87;15.57;;;;;;;;;;4946761;28;20478;-74
2023/05/13 01:37:28;;;;;;;20.30;18.60;;;;;;;;;;4944347;29;20429;-75
2023/05/13 01:39:54;;;;;;;21.97;19.97;;;;;;;;;;4939620;29;20473;-75
2023/05/13 01:42:20;;;;;;;19.37;17.67;;;;;;;;;;4944069;29;20851;-75
2023/05/13 01:44:46;;;;;;;21.00;19.10;;;;;;;;;;4945428;29;20413;-75
2023/05/13 01:47:12;;;;;;;22.25;20.15;;;;;;;;;;4942348;29;20456;-75
2023/05/13 01:49:38;;;;;;;21.42;19.42;;;;;;;;;;4945905;29;20436;-75
2023/05/13 01:52:04;;;;;;;23.00;20.95;;;;;;;;;;4943015;29;20412;-75
2023/05/13 01:54:30;;;;;;;21.80;19.70;;;;;;;;;;4945246;29;20429;-74
2023/05/13 01:56:56;;;;;;;23.35;21.35;;;;;;;;;;4944204;29;20834;-75
2023/05/13 01:59:23;;;;;;;23.38;21.38;;;;;;;;;;4946126;29;20481;-74
2023/05/13 02:01:49;;;;;;;22.10;20.00;;;;;;;;;;4942001;29;20421;-75
2023/05/13 02:04:15;;;;;;;22.40;20.40;;;;;;;;;;4941858;29;20424;-75
2023/05/13 02:06:41;;;;;;;22.00;19.80;;;;;;;;;;4942359;29;20406;-75
2023/05/13 02:09:07;;;;;;;23.00;20.70;;;;;;;;;;4937535;29;20410;-74
2023/05/13 02:11:34;;;;;;;22.63;20.77;;;;;;;;;;4942721;29;20494;-75
2023/05/13 02:14:00;;;;;;;22.27;20.27;;;;;;;;;;4946111;29;20402;-75
2023/05/13 02:16:26;;;;;;;21.80;19.67;;;;;;;;;;4942110;29;20409;-75
2023/05/13 02:18:52;;;;;;;21.77;19.90;;;;;;;;;;4945557;29;20448;-73
2023/05/13 02:21:18;;;;;;;21.60;19.63;;;;;;;;;;4943429;29;20866;-75
2023/05/13 02:23:44;;;;;;;20.30;18.60;;;;;;;;;;4936932;29;20422;-74
2023/05/13 02:26:10;;;;;;;17.80;16.30;;;;;;;;;;4941070;29;20426;-75
2023/05/13 02:28:36;;;;;;;18.10;15.40;;;;;;;;;;4946715;28;20579;-75
2023/05/13 02:31:02;;;;;;;16.13;14.13;;;;;;;;;;4947154;29;20996;-75
2023/05/13 02:33:28;;;;;;;16.03;14.53;;;;;;;;;;4944257;29;20831;-75
2023/05/13 02:35:54;;;;;;;21.90;19.90;;;;;;;;;;4946908;29;20425;-74
2023/05/13 02:38:20;;;;;;;22.30;20.13;;;;;;;;;;4954411;29;20425;-75
2023/05/13 02:40:47;;;;;;;;;;;;;;;;;;4968960;29;20043;-75
2023/05/13 02:43:12;;;;;;;;;;;;;;;;;;4940827;29;19917;-75
2023/05/13 02:45:38;;;;;;;;;;;;;;;;;;4946867;29;20215;-74
2023/05/13 02:48:04;;;;;;;23.33;21.02;;;;;;;;;;4942481;29;20433;-75
2023/05/13 02:50:30;;;;;;;22.90;20.90;;;;;;;;;;4944939;28;20402;-75
2023/05/13 02:52:56;;;;;;;23.73;21.33;;;;;;;;;;4942524;29;20433;-75
2023/05/13 02:55:22;;;;;;;23.60;21.30;;;;;;;;;;4945100;29;20413;-74
2023/05/13 02:57:49;;;;;;;23.08;21.00;;;;;;;;;;4942416;29;20421;-75
2023/05/13 03:00:15;;;;;;;22.65;20.65;;;;;;;;;;4943398;29;20398;-74
2023/05/13 03:02:41;;;;;;;22.67;20.67;;;;;;;;;;4940211;29;20398;-75
2023/05/13 03:05:07;;;;;;;23.80;21.73;;;;;;;;;;4930458;29;20398;-74
2023/05/13 03:07:34;;;;;;;22.33;20.30;;;;;;;;;;4943034;29;20465;-75
2023/05/13 03:10:00;;;;;;;23.63;21.42;;;;;;;;;;4945286;29;20679;-74
2023/05/13 03:12:26;;;;;;;24.50;22.30;;;;;;;;;;4942606;29;20401;-75
2023/05/13 03:14:52;;;;;;;23.38;21.13;;;;;;;;;;4935680;29;20974;-75
2023/05/13 03:17:18;;;;;;;24.83;22.30;;;;;;;;;;4941508;29;20983;-75
2023/05/13 03:19:44;;;;;;;23.50;21.50;;;;;;;;;;4945272;29;20410;-74
2023/05/13 03:22:10;;;;;;;23.92;21.75;;;;;;;;;;4941786;29;20406;-75
2023/05/13 03:24:36;;;;;;;24.50;22.35;;;;;;;;;;4944960;29;20413;-74
2023/05/13 03:27:02;;;;;;;24.27;21.90;;;;;;;;;;4941903;29;20660;-74
2023/05/13 03:29:28;;;;;;;23.17;21.10;;;;;;;;;;4944805;29;20425;-75
2023/05/13 03:31:54;;;;;;;24.25;21.85;;;;;;;;;;4937736;29;20452;-75
2023/05/13 03:34:20;;;;;;;26.25;23.55;;;;;;;;;;4944199;29;20393;-74
2023/05/13 03:36:46;;;;;;;25.60;23.30;;;;;;;;;;4940669;29;20489;-75
2023/05/13 03:39:12;;;;;;;25.90;23.40;;;;;;;;;;4944270;29;20394;-74
2023/05/13 03:41:38;;;;;;;25.95;23.35;;;;;;;;;;4941256;29;20441;-74
2023/05/13 03:44:05;;;;;;;26.00;23.70;;;;;;;;;;4944683;28;20480;-74
2023/05/13 03:46:33;;;;;;;29.48;25.52;;;;;;;;;;4940215;29;20770;-75
2023/05/13 03:48:59;;;;;;;26.02;23.42;;;;;;;;;;4943950;28;20393;-74
2023/05/13 03:51:25;;;;;;;26.67;23.30;;;;;;;;;;4941740;29;20433;-75
2023/05/13 03:53:51;;;;;;;25.17;22.77;;;;;;;;;;4944777;29;20634;-75
2023/05/13 03:56:17;;;;;;;27.17;24.58;;;;;;;;;;4941622;28;20428;-74
2023/05/13 03:58:44;;;;;;;26.95;24.48;;;;;;;;;;4948074;29;20886;-75
2023/05/13 04:01:10;;;;;;;24.50;22.20;;;;;;;;;;4944911;29;20473;-74
2023/05/13 04:03:36;;;;;;;24.33;22.08;;;;;;;;;;4945640;29;20831;-74
2023/05/13 04:06:02;;;;;;;25.55;22.85;;;;;;;;;;4947626;29;20492;-75
2023/05/13 04:08:28;;;;;;;24.40;22.20;;;;;;;;;;4932837;29;20413;-75
2023/05/13 04:10:57;;;;;;;;;;;;;;;;;;4949525;29;20409;-76
2023/05/13 04:13:23;;;;;;;;;;;;;;;;;;4946777;29;19911;-75
2023/05/13 04:15:49;;;;;;;;;;;;;;;;;;4935452;29;19957;-75
2023/05/13 04:18:15;;;;;;;23.02;21.00;;;;;;;;;;4944844;29;20465;-75
2023/05/13 04:20:41;;;;;;;25.27;23.08;;;;;;;;;;4948629;29;20921;-75
2023/05/13 04:23:10;;;;;;;23.60;21.30;;;;;;;;;;4941522;29;20773;-75
2023/05/13 04:25:38;;;;;;;23.07;21.17;;;;;;;;;;4945117;29;20577;-75
2023/05/13 04:28:05;;;;;;;23.60;21.50;;;;;;;;;;4944066;28;20500;-75
2023/05/13 04:30:32;;;;;;;23.75;21.65;;;;;;;;;;4949196;28;20461;-74
2023/05/13 04:32:58;;;;;;;23.20;21.08;;;;;;;;;;4958949;28;20390;-75
2023/05/13 04:35:27;;;;;;;23.52;21.10;;;;;;;;;;4950484;28;20477;-75
2023/05/13 04:37:53;;;;;;;21.30;19.50;;;;;;;;;;4938956;29;20422;-75
2023/05/13 04:40:19;;;;;;;20.58;18.98;;;;;;;;;;4936194;29;20453;-75
2023/05/13 04:42:45;;;;;;;;;;;;;;;;;;4948911;29;20106;-74
2023/05/13 04:45:10;;;;;;;;;;;;;;;;;;4946289;29;19987;-74
2023/05/13 04:47:36;;;;;;;;;;;;;;;;;;4948032;29;19918;-74
2023/05/13 04:50:02;;;;;;;;;;;;;;;;;;4928505;29;19961;-74
2023/05/13 04:52:28;;;;;;;18.20;16.50;;;;;;;;;;4946320;29;20408;-75
2023/05/13 04:54:55;;;;;;;17.80;16.40;;;;;;;;;;4941058;29;20401;-74
2023/05/13 04:57:21;;;;;;;18.00;16.50;;;;;;;;;;4945173;29;20450;-76
2023/05/13 04:59:47;;;;;;;17.90;16.60;;;;;;;;;;4940421;28;20445;-75
2023/05/13 05:02:15;;;;;;;16.73;15.52;;;;;;;;;;4947001;28;20413;-75
2023/05/13 05:04:42;;;;;;;15.98;14.70;;;;;;;;;;4941981;29;20420;-74
2023/05/13 05:07:08;;;;;;;16.05;14.55;;;;;;;;;;4947657;28;20853;-75
2023/05/13 05:09:34;;;;;;;15.10;13.80;;;;;;;;;;4942378;28;20917;-75
2023/05/13 05:12:00;;;;;;;14.50;13.40;;;;;;;;;;4947389;29;20432;-75
2023/05/13 05:14:26;;;;;;;;;;;;;;;;;;4946145;28;20023;-75
2023/05/13 05:16:52;;;;;;;12.20;10.93;;;;;;;;;;4945885;29;20204;-75
2023/05/13 05:19:22;;;;;;;14.15;12.95;;;;;;;;;;4945489;29;20413;-75
2023/05/13 05:21:48;;;;;;;14.63;13.53;;;;;;;;;;4939818;29;20409;-75
2023/05/13 05:24:14;;;;;;;14.10;13.00;;;;;;;;;;4942254;29;20870;-75
2023/05/13 05:26:40;;;;;;;12.77;11.83;;;;;;;;;;4945172;28;20508;-75
2023/05/13 05:29:07;;;;;;;13.18;12.30;;;;;;;;;;4940803;28;20484;-76
2023/05/13 05:31:33;;;;;;;13.60;12.60;;;;;;;;;;4943813;29;21093;-75
2023/05/13 05:34:00;;;;;;;14.02;12.88;;;;;;;;;;4944281;29;20689;-76
2023/05/13 05:36:26;;;;;;;13.07;12.00;;;;;;;;;;4942135;29;20671;-76
2023/05/13 05:38:52;;;;;;;12.57;11.63;;;;;;;;;;4943167;29;20437;-76
2023/05/13 05:41:18;;;;;;;12.57;11.57;;;;;;;;;;4939110;29;21201;-76
2023/05/13 05:43:44;;;;;;;13.80;12.47;;;;;;;;;;4946188;28;20561;-77
2023/05/13 05:46:10;;;;;;;11.17;10.30;;;;;;;;;;4946527;29;20779;-76
2023/05/13 05:48:36;;;;;;;12.43;11.37;;;;;;;;;;4944778;29;20434;-76
2023/05/13 05:51:02;;;;;;;11.57;10.73;;;;;;;;;;4943898;29;20445;-75
2023/05/13 05:53:28;;;;;;;11.90;11.20;;;;;;;;;;4942297;29;20423;-76
2023/05/13 05:55:54;;;;;;;11.90;11.00;;;;;;;;;;4943138;29;20457;-76
2023/05/13 05:58:20;;;;;;;12.57;11.77;;;;;;;;;;4946819;29;20496;-76
2023/05/13 06:00:46;;;;;;;11.40;10.70;;;;;;;;;;4944019;29;20462;-76
2023/05/13 06:03:12;;;;;;;11.80;11.10;;;;;;;;;;4947418;29;20422;-76
2023/05/13 06:05:38;;;;;;;12.80;11.93;;;;;;;;;;4943307;29;20496;-76
2023/05/13 06:08:05;;;;;;;13.40;12.30;;;;;;;;;;4947003;29;20470;-76
2023/05/13 06:10:31;;;;;;;12.17;11.17;;;;;;;;;;4944344;29;20910;-76
2023/05/13 06:12:57;;;;;;;10.80;10.20;;;;;;;;;;4946526;29;20664;-77
2023/05/13 06:15:23;;;;;;;12.30;11.40;;;;;;;;;;4943821;29;20657;-76
2023/05/13 06:17:49;;;;;;;12.43;11.63;;;;;;;;;;4946199;29;20532;-76
2023/05/13 06:20:14;;;;;;;12.20;11.40;;;;;;;;;;4943703;28;20446;-76
2023/05/13 06:22:41;;;;;;;11.90;11.20;;;;;;;;;;4943365;29;20450;-76
2023/05/13 06:25:07;;;;;;;13.40;12.40;;;;;;;;;;4942804;28;20544;-77
2023/05/13 06:27:33;;;;;;;13.50;12.37;;;;;;;;;;4959143;28;20466;-77
2023/05/13 06:29:59;;;;;;;14.10;13.10;;;;;;;;;;4965437;28;20453;-77
2023/05/13 06:32:25;;;;;;;13.17;12.30;;;;;;;;;;4950686;29;20434;-77
2023/05/13 06:34:51;;;;;;;13.37;12.47;;;;;;;;;;4943506;28;20442;-76
2023/05/13 06:37:18;;;;;;;14.00;13.10;;;;;;;;;;4945834;29;20465;-77
2023/05/13 06:39:44;;;;;;;14.67;13.67;;;;;;;;;;4941531;29;20529;-76
2023/05/13 06:42:10;;;;;;;14.23;12.90;;;;;;;;;;4946600;29;20944;-77
2023/05/13 06:44:36;;;;;;;12.60;11.77;;;;;;;;;;4942564;29;20437;-77
2023/05/13 06:47:03;;;;;;;13.97;13.00;;;;;;;;;;4937203;28;20435;-76
2023/05/13 06:49:30;;;;;;;14.63;13.43;;;;;;;;;;4940049;29;20445;-75
2023/05/13 06:51:56;;;;;;;14.57;13.48;;;;;;;;;;4943975;28;20404;-76
2023/05/13 06:54:22;;;;;;;14.43;13.27;;;;;;;;;;4944738;28;20190;-75
2023/05/13 06:56:48;;;;;;;13.53;12.50;;;;;;;;;;4942952;29;20514;-76
2023/05/13 06:59:15;;;;;;;14.00;12.77;;;;;;;;;;4943796;29;20446;-75
2023/05/13 07:01:41;;;;;;;14.88;13.38;;;;;;;;;;4943754;29;20798;-75
2023/05/13 07:04:09;;;;;;;12.90;12.10;;;;;;;;;;4937110;29;20194;-75
2023/05/13 07:06:35;;;;;;;14.03;13.10;;;;;;;;;;4941979;29;20433;-75
2023/05/13 07:09:01;;;;;;;13.37;12.23;;;;;;;;;;4943536;29;20446;-75
2023/05/13 07:11:27;;;;;;;12.47;11.67;;;;;;;;;;4944902;29;20493;-75
2023/05/13 07:13:53;;;;;;;13.30;12.20;;;;;;;;;;4941385;29;20606;-75
2023/05/13 07:16:20;;;;;;;16.57;15.20;;;;;;;;;;4943464;29;20954;-77
2023/05/13 07:18:46;;;;;;;13.97;13.03;;;;;;;;;;4943177;28;20580;-76
2023/05/13 07:21:13;;;;;;;14.37;12.70;;;;;;;;;;4942985;28;20807;-76
2023/05/13 07:23:40;;;;;;;14.37;13.03;;;;;;;;;;4942467;28;20469;-75
2023/05/13 07:26:06;;;;;;;14.50;13.60;;;;;;;;;;4941536;28;20777;-75
2023/05/13 07:28:32;;;;;;;17.10;13.70;;;;;;;;;;4945034;28;20822;-75
2023/05/13 07:30:58;;;;;;;16.53;14.80;;;;;;;;;;4941368;28;20449;-75
2023/05/13 07:33:24;;;;;;;16.50;15.10;;;;;;;;;;4946448;29;20821;-76
2023/05/13 07:35:50;;;;;;;17.23;16.02;;;;;;;;;;4943134;28;20655;-77
2023/05/13 07:38:19;;;;;;;16.65;15.32;;;;;;;;;;4949570;28;20429;-76
2023/05/13 07:40:45;;;;;;;16.73;15.32;;;;;;;;;;4944806;29;20417;-75
2023/05/13 07:43:12;;;;;;;14.77;13.47;;;;;;;;;;4949847;29;20183;-76
2023/05/13 07:45:38;;;;;;;13.80;12.90;;;;;;;;;;4945639;29;20442;-75
2023/05/13 07:48:04;;;;;;;14.23;12.97;;;;;;;;;;4950062;29;20437;-75
2023/05/13 07:50:31;;;;;;;13.90;12.50;;;;;;;;;;4939263;28;20917;-74
2023/05/13 07:52:57;;;;;;;14.50;13.00;;;;;;;;;;4940807;29;20445;-75
2023/05/13 07:55:23;;;;;;;13.70;12.70;;;;;;;;;;4944647;29;20441;-77
2023/05/13 07:57:49;;;;;;;14.47;13.27;;;;;;;;;;4945787;29;20478;-76
2023/05/13 08:00:16;;;;;;;11.17;10.57;;;;;;;;;;4945682;29;20438;-76
2023/05/13 08:02:42;;;;;;;12.13;10.90;;;;;;;;;;4945797;28;20441;-75
2023/05/13 08:05:09;;;;;;;11.03;10.30;;;;;;;;;;4929179;28;20858;-76
2023/05/13 08:07:35;;;;;;;10.60;10.10;;;;;;;;;;4948985;29;20829;-75
2023/05/13 08:10:01;;;;;;;11.07;10.23;;;;;;;;;;4933592;28;20482;-75
2023/05/13 08:12:27;;;;;;;10.10;9.50;;;;;;;;;;4947802;28;20445;-76
2023/05/13 08:14:53;;;;;;;10.30;9.70;;;;;;;;;;4944294;28;20486;-77
2023/05/13 08:17:19;;;;;;;10.73;9.87;;;;;;;;;;4947720;29;20517;-77
2023/05/13 08:19:45;;;;;;;10.00;9.10;;;;;;;;;;4923026;29;20820;-78
2023/05/13 08:22:12;;;;;;;10.93;10.17;;;;;;;;;;4948888;29;20426;-76
2023/05/13 08:24:39;;;;;;;9.73;9.03;;;;;;;;;;4960417;29;21016;-76
2023/05/13 08:27:05;;;;;;;9.17;8.67;;;;;;;;;;4961575;28;20441;-76
2023/05/13 08:29:31;;;;;;;9.83;9.33;;;;;;;;;;4949229;28;20543;-77
2023/05/13 08:31:58;;;;;;;9.20;8.80;;;;;;;;;;4943353;29;20462;-76
2023/05/13 08:34:24;;;;;;;8.00;7.60;;;;;;;;;;4944551;29;20441;-76
2023/05/13 08:36:49;;;;;;;8.53;7.93;;;;;;;;;;4947651;29;20445;-76
2023/05/13 08:39:16;;;;;;;9.33;8.73;;;;;;;;;;4947528;28;20817;-78
2023/05/13 08:41:43;;;;;;;8.10;7.70;;;;;;;;;;4944424;28;20462;-78
2023/05/13 08:44:12;;;;;;;7.53;6.93;;;;;;;;;;4942155;28;20894;-78
2023/05/13 08:46:40;;;;;;;8.70;8.20;;;;;;;;;;4942246;28;20552;-77
2023/05/13 08:49:06;;;;;;;8.00;7.60;;;;;;;;;;4950662;28;20464;-77
2023/05/13 08:51:32;;;;;;;8.43;7.87;;;;;;;;;;4946298;28;20536;-78
2023/05/13 08:53:58;;;;;;;8.37;7.97;;;;;;;;;;4949027;28;20430;-77
2023/05/13 08:56:27;;;;;;;8.40;7.90;;;;;;;;;;4949412;28;20441;-78
2023/05/13 08:58:53;;;;;;;8.50;7.80;;;;;;;;;;4950578;28;20528;-77
2023/05/13 09:01:20;;;;;;;8.50;7.83;;;;;;;;;;4936926;28;20433;-78
2023/05/13 09:03:54;;;;;;;8.43;7.80;;;;;;;;;;4942896;28;21013;-77
2023/05/13 09:06:20;;;;;;;6.90;6.70;;;;;;;;;;4946710;28;20438;-76
2023/05/13 09:08:46;;;;;;;8.23;7.63;;;;;;;;;;4950797;28;20432;-78
2023/05/13 09:11:13;;;;;;;8.10;7.60;;;;;;;;;;4931686;28;20795;-76
2023/05/13 09:13:39;;;;;;;7.40;7.10;;;;;;;;;;4941954;28;20430;-77
2023/05/13 09:16:06;;;;;;;7.57;7.27;;;;;;;;;;4943502;28;20778;-76
2023/05/13 09:18:32;;;;;;;7.30;7.00;;;;;;;;;;4950793;28;20462;-76
2023/05/13 09:20:58;;;;;;;8.10;7.40;;;;;;;;;;4961808;28;20428;-77
2023/05/13 09:23:24;;;;;;;8.07;7.60;;;;;;;;;;4951636;28;20817;-75
2023/05/13 09:25:50;;;;;;;7.17;6.60;;;;;;;;;;4940591;28;20431;-78
2023/05/13 09:28:15;;;;;;;7.60;7.10;;;;;;;;;;4954107;28;20460;-79
2023/05/13 09:30:42;;;;;;;7.43;7.10;;;;;;;;;;4955509;28;20444;-78
2023/05/13 09:33:15;;;;;;;7.50;7.00;;;;;;;;;;4951035;28;20492;-77
2023/05/13 09:35:42;;;;;;;6.33;6.03;;;;;;;;;;4944657;28;20437;-77
2023/05/13 09:38:16;;;;;;;7.07;6.77;;;;;;;;;;4958199;28;20473;-78
2023/05/13 09:40:49;;;;;;;7.67;7.37;;;;;;;;;;4947617;28;20466;-79
2023/05/13 09:43:15;;;;;;;7.43;7.03;;;;;;;;;;4943974;29;20434;-76
2023/05/13 09:45:41;;;;;;;7.20;6.90;;;;;;;;;;4945335;29;20444;-77
2023/05/13 09:48:08;;;;;;;7.87;7.40;;;;;;;;;;4941972;28;20454;-78
2023/05/13 09:50:34;;;;;;;6.63;6.33;;;;;;;;;;4946495;28;20421;-76
2023/05/13 09:53:20;;;;;;;7.80;7.50;;;;;;;;;;4943662;29;20448;-76
2023/05/13 09:55:50;;;;;;;7.60;7.03;;;;;;;;;;4940803;28;20444;-76
2023/05/13 09:58:17;;;;;;;7.97;7.37;;;;;;;;;;4943314;29;20544;-77
2023/05/13 10:00:43;;;;;;;17.20;7.23;;;;;;;;;;4938492;29;20442;-76
2023/05/13 10:03:10;;;;;;;7.23;6.93;;;;;;;;;;4936476;28;20459;-76
2023/05/13 10:05:38;;;;;;;6.63;6.33;;;;;;;;;;4944103;28;20423;-76
2023/05/13 10:08:04;;;;;;;6.80;6.50;;;;;;;;;;4943207;29;20540;-76
2023/05/13 10:10:32;;;;;;;6.07;5.77;;;;;;;;;;4942363;29;20857;-77
2023/05/13 10:12:59;;;;;;;8.20;6.40;;;;;;;;;;4944179;29;20438;-76
2023/05/13 10:15:26;;;;;;;7.70;6.10;;;;;;;;;;4947037;29;20510;-77
2023/05/13 10:17:52;;;;;;;5.63;5.43;;;;;;;;;;4943612;28;20841;-77
2023/05/13 10:20:21;;;;;;;5.67;5.50;;;;;;;;;;4948484;29;20445;-77
2023/05/13 10:22:48;;;;;;;10.50;6.03;;;;;;;;;;4960039;28;20474;-78
2023/05/13 10:25:14;;;;;;;6.57;6.03;;;;;;;;;;4961180;29;20485;-76
2023/05/13 10:27:42;;;;;;;7.07;6.70;;;;;;;;;;4951590;29;20767;-77
2023/05/13 10:30:09;;;;;;;6.90;6.50;;;;;;;;;;4933383;28;20446;-76
2023/05/13 10:32:36;;;;;;;6.43;6.13;;;;;;;;;;4943918;29;20465;-76
2023/05/13 10:35:06;;;;;;;6.20;6.00;;;;;;;;;;4944278;28;20533;-77
2023/05/13 10:37:38;;;;;;;5.80;5.60;;;;;;;;;;4944247;29;20483;-77
2023/05/13 10:40:04;;;;;;;5.83;5.60;;;;;;;;;;4927185;28;20830;-76
2023/05/13 10:42:37;;;;;;;6.40;6.07;;;;;;;;;;4945233;28;20460;-76
2023/05/13 10:45:03;;;;;;;5.90;5.50;;;;;;;;;;4943762;28;20448;-73
2023/05/13 10:47:32;;;;;;;6.20;5.70;;;;;;;;;;4947137;28;20493;-76
2023/05/13 10:50:03;;;;;;;7.97;5.73;;;;;;;;;;4948036;28;20442;-77
2023/05/13 10:52:48;;;;;;;6.20;5.80;;;;;;;;;;4943713;28;20466;-76
2023/05/13 10:55:16;;;;;;;8.73;6.07;;;;;;;;;;4939988;28;20442;-76
2023/05/13 10:57:42;;;;;;;5.80;5.60;;;;;;;;;;4942163;28;20843;-75
2023/05/13 11:00:17;;;;;;;6.30;6.00;;;;;;;;;;4943269;28;20453;-75
2023/05/13 11:02:43;;;;;;;5.30;5.10;;;;;;;;;;4950473;28;20546;-76
2023/05/13 11:05:18;;;;;;;6.70;5.63;;;;;;;;;;4949753;28;20521;-76
2023/05/13 11:07:54;;;;;;;5.33;5.13;;;;;;;;;;4942516;28;20689;-77
2023/05/13 11:10:28;;;;;;;5.40;5.30;;;;;;;;;;4950063;28;20438;-77
2023/05/13 11:13:27;;;;;;;5.80;5.60;;;;;;;;;;4948204;28;20446;-76
2023/05/13 11:15:54;;;;;;;5.47;5.27;;;;;;;;;;4926733;28;20837;-76
2023/05/13 11:18:28;;;;;;;6.90;6.23;;;;;;;;;;4944305;28;20475;-76
2023/05/13 11:20:55;;;;;;;5.87;5.57;;;;;;;;;;4949369;28;20827;-75
2023/05/13 11:23:22;;;;;;;5.97;5.50;;;;;;;;;;4945745;28;20774;-75
2023/05/13 11:26:08;;;;;;;5.47;5.37;;;;;;;;;;4949182;28;20513;-76
2023/05/13 11:28:53;;;;;;;5.87;5.67;;;;;;;;;;4946890;28;20438;-77
2023/05/13 11:31:20;;;;;;;5.30;5.10;;;;;;;;;;4941167;28;20434;-76
2023/05/13 11:34:09;;;;;;;5.70;5.47;;;;;;;;;;4938579;28;20647;-74
2023/05/13 11:36:39;;;;;;;5.57;5.37;;;;;;;;;;4941246;28;20691;-74
2023/05/13 11:39:06;;;;;;;5.43;5.33;;;;;;;;;;4949324;28;20438;-75
2023/05/13 11:41:33;;;;;;;5.93;5.43;;;;;;;;;;4944765;29;20835;-76
2023/05/13 11:44:01;;;;;;;6.10;5.50;;;;;;;;;;4949004;29;20438;-76
2023/05/13 11:46:28;;;;;;;5.10;5.00;;;;;;;;;;4945135;29;20445;-76
2023/05/13 11:48:54;;;;;;;6.13;5.60;;;;;;;;;;4948959;29;20426;-76
2023/05/13 11:51:20;;;;;;;5.50;5.20;;;;;;;;;;4946160;29;20533;-77
2023/05/13 11:53:46;;;;;;;5.70;5.40;;;;;;;;;;4949541;29;20445;-75
2023/05/13 11:56:12;;;;;;;5.73;5.27;;;;;;;;;;4946354;29;20422;-76
2023/05/13 11:58:38;;;;;;;4.50;4.40;;;;;;;;;;4949057;28;20518;-77
2023/05/13 12:01:04;;;;;;;7.67;7.30;;;;;;;;;;4945309;29;20566;-76
2023/05/13 12:03:30;;;;;;;5.50;5.20;;;;;;;;;;4949422;29;20489;-76
2023/05/13 12:06:04;;;;;;;4.80;4.70;;;;;;;;;;4946512;29;20950;-76
2023/05/13 12:08:30;;;;;;;4.93;4.57;;;;;;;;;;4945879;28;20434;-77
2023/05/13 12:10:58;;;;;;;6.47;6.17;;;;;;;;;;4947016;28;20434;-76
2023/05/13 12:13:24;;;;;;;4.97;4.80;;;;;;;;;;4942255;29;20436;-76
2023/05/13 12:15:50;;;;;;;5.77;5.13;;;;;;;;;;4944152;29;20586;-76
2023/05/13 12:18:16;;;;;;;5.53;5.20;;;;;;;;;;4959237;28;20484;-77
2023/05/13 12:20:43;;;;;;;5.17;4.97;;;;;;;;;;4971507;28;20755;-76
2023/05/13 12:23:12;;;;;;;4.97;4.87;;;;;;;;;;4950933;29;20933;-75
2023/05/13 12:25:40;;;;;;;5.17;4.90;;;;;;;;;;4950251;29;20434;-75
2023/05/13 12:28:07;;;;;;;5.13;4.93;;;;;;;;;;4945059;28;20500;-77
2023/05/13 12:30:36;;;;;;;6.10;5.90;;;;;;;;;;4948819;29;20457;-75
2023/05/13 12:33:05;;;;;;;6.40;6.10;;;;;;;;;;4939101;28;20952;-76
2023/05/13 12:35:32;;;;;;;5.63;5.47;;;;;;;;;;4944409;29;20578;-76
2023/05/13 12:38:05;;;;;;;5.23;5.00;;;;;;;;;;4943344;28;20585;-76
2023/05/13 12:40:31;;;;;;;7.23;5.90;;;;;;;;;;4943307;29;20458;-75
2023/05/13 12:42:58;;;;;;;6.77;6.10;;;;;;;;;;4940058;28;20526;-75
2023/05/13 12:45:26;;;;;;;5.17;4.90;;;;;;;;;;4946580;29;20485;-76
2023/05/13 12:47:52;;;;;;;4.67;4.50;;;;;;;;;;4940594;28;20625;-76
2023/05/13 12:50:18;;;;;;;5.67;5.47;;;;;;;;;;4949077;29;20548;-76
2023/05/13 12:52:44;;;;;;;5.20;5.00;;;;;;;;;;4923572;29;20794;-76
2023/05/13 12:55:12;;;;;;;5.30;5.10;;;;;;;;;;4941927;28;20434;-76
2023/05/13 12:57:38;;;;;;;5.30;5.03;;;;;;;;;;4943951;29;21409;-76
2023/05/13 13:00:04;;;;;;;5.47;5.27;;;;;;;;;;4927303;29;20435;-76
2023/05/13 13:02:30;;;;;;;5.03;4.83;;;;;;;;;;4946750;28;20529;-76
2023/05/13 13:04:56;;;;;;;5.90;5.50;;;;;;;;;;4945048;29;20522;-76
2023/05/13 13:07:23;;;;;;;5.20;4.90;;;;;;;;;;4941792;29;21005;-76
2023/05/13 13:09:49;;;;;;;4.70;4.70;;;;;;;;;;4947340;29;20442;-76
2023/05/13 13:12:15;;;;;;;5.37;5.07;;;;;;;;;;4938183;29;20446;-75
2023/05/13 13:14:41;;;;;;;5.60;5.30;;;;;;;;;;4942499;28;20450;-76
2023/05/13 13:17:07;;;;;;;4.83;4.53;;;;;;;;;;4939013;28;20542;-76
2023/05/13 13:19:33;;;;;;;5.63;5.53;;;;;;;;;;4946701;29;20426;-77
2023/05/13 13:21:59;;;;;;;5.10;5.00;;;;;;;;;;4940595;29;20469;-77
2023/05/13 13:24:25;;;;;;;5.73;5.43;;;;;;;;;;4945764;29;20438;-75
2023/05/13 13:26:52;;;;;;;6.07;5.53;;;;;;;;;;4943490;28;20430;-75
2023/05/13 13:29:18;;;;;;;4.50;4.40;;;;;;;;;;4938840;28;20450;-76
2023/05/13 13:31:45;;;;;;;5.50;5.30;;;;;;;;;;4944169;29;20541;-76
2023/05/13 13:34:12;;;;;;;5.90;4.70;;;;;;;;;;4925975;29;20609;-78
2023/05/13 13:36:38;;;;;;;4.90;4.80;;;;;;;;;;4946780;28;20737;-77
2023/05/13 15:38:26;;;;;;;468.70;441.67;;;;;;;;;;5101297;27;20286;-75
2023/05/13 15:40:52;;;;;;;341.43;324.20;;;;;;;;;;5073915;28;20711;-77
2023/05/13 15:43:18;;;;;;;129.07;122.77;;;;;;;;;;5092262;28;20463;-76
2023/05/13 15:45:44;;;;;;;107.53;102.63;;;;;;;;;;5084091;28;20889;-75
2023/05/13 15:48:10;;;;;;;40.90;38.37;;;;;;;;;;5081467;28;20450;-75
2023/05/13 15:50:36;;;;;;;18.87;17.50;;;;;;;;;;5073700;28;20434;-75
2023/05/13 15:53:02;;;;;;;15.43;14.30;;;;;;;;;;5085542;28;20435;-75
2023/05/13 15:55:28;;;;;;;15.10;14.13;;;;;;;;;;5084889;28;21240;-76
2023/05/13 15:57:54;;;;;;;27.30;25.13;;;;;;;;;;5067959;28;20460;-77
2023/05/13 16:00:20;;;;;;;14.07;13.07;;;;;;;;;;5092757;28;20784;-76
2023/05/13 16:02:46;;;;;;;10.40;9.70;;;;;;;;;;5078997;28;20431;-75
2023/05/13 16:05:14;;;;;;;10.93;10.17;;;;;;;;;;5098958;28;20441;-75
2023/05/13 16:07:40;;;;;;;17.10;15.77;;;;;;;;;;5103518;28;20404;-73
2023/05/13 16:10:06;;;;;;;29.27;26.37;;;;;;;;;;5092066;28;20943;-76
2023/05/13 16:12:32;;;;;;;34.60;27.10;;;;;;;;;;5089561;28;20438;-74
2023/05/13 16:14:58;;;;;;;13.23;12.10;;;;;;;;;;5097824;28;20434;-75
2023/05/13 16:17:24;;;;;;;12.37;11.20;;;;;;;;;;5084252;28;20822;-74
2023/05/13 16:19:50;;;;;;;19.83;18.10;;;;;;;;;;5093322;28;20678;-75
2023/05/13 16:22:31;;;;;;;9.80;9.13;;;;;;;;;;5094230;28;20744;-75
2023/05/13 16:24:58;;;;;;;7.47;6.93;;;;;;;;;;5079075;28;20452;-75
2023/05/13 16:27:25;;;;;;;14.23;12.90;;;;;;;;;;5088160;28;20432;-75
2023/05/13 16:29:51;;;;;;;15.87;13.70;;;;;;;;;;5083471;28;20520;-76